METAR Data
IDs: Format: Raw Decoded Include TAF

Data at: 1602 UTC 21 Sep 2018

KISN 202155Z AUTO 04012G20KT 2 1/2SM -RA BR SCT007 OVC015 05/03 A2996 RMK AO2 P0001 T00500033
KISN 202152Z AUTO 05014G20KT 2 1/2SM -RA BR BKN008 OVC015 06/03 A2996 RMK AO2 SLP160 P0006 T00560033
KISN 202144Z AUTO 03014KT 2SM -RA BR BKN008 OVC013 05/03 A2996 RMK AO2 P0005 T00500033
KISN 202131Z AUTO 03013KT 2SM -RA BR FEW006 OVC013 05/03 A2996 RMK AO2 P0004 T00500033
KISN 202129Z AUTO 03014KT 1 3/4SM -RA BR BKN008 OVC013 05/03 A2996 RMK AO2 P0004 T00500033
KISN 202104Z AUTO 04012KT 1 1/2SM RA BR SCT008 OVC013 06/03 A2997 RMK AO2 P0001 T00560033
KISN 202059Z AUTO 04012KT 2SM -RA BR OVC013 06/03 A2997 RMK AO2 P0000 T00560033
KISN 202052Z AUTO 04014KT 3SM -RA OVC013 06/03 A2997 RMK AO2 SLP162 P0002 60010 T00610033 58004
KISN 202035Z AUTO 05013KT 4SM -RA OVC015 06/03 A2997 RMK AO2 P0001 T00610033
KISN 201952Z AUTO 05011G20KT 3SM -RA BR BKN014 OVC029 06/04 A2998 RMK AO2 SLP163 P0005 T00610039
KISN 201917Z AUTO 06011KT 4SM -RA OVC014 07/04 A2997 RMK AO2 P0002 T00670039
KISN 201852Z AUTO 05013KT 6SM -RA BKN015 BKN029 OVC040 07/04 A2998 RMK AO2 SLP165 P0003 T00670039
KISN 201849Z AUTO 04014KT 7SM -RA SCT014 BKN029 OVC040 07/04 A2998 RMK AO2 P0003
KISN 201752Z AUTO 06011KT 9SM -RA OVC036 07/04 A2999 RMK AO2 SLP169 P0003 60042 T00670039 10083 20056 58001
KISN 201652Z AUTO 05010KT 6SM -RA BR BKN047 OVC055 07/04 A2999 RMK AO2 SLP170 P0009 T00670044
KISN 201552Z AUTO 04007KT 5SM RA BKN045 OVC050 06/03 A3000 RMK AO2 SLP173 P0017 T00610033
KISN 201452Z AUTO 07012KT 3SM RA BKN048 OVC060 07/04 A3000 RMK AO2 SLP168 P0012 60013 T00720039 58025
KISN 201352Z AUTO 08006KT 10SM -RA OVC047 07/04 A3005 RMK AO2 RAB14 PRESFR SLP187 P0001 T00720039
KISN 201252Z AUTO 08003KT 10SM OVC085 08/03 A3007 RMK AO2 SLP192 T00830028
KISN 201152Z AUTO 10006KT 10SM OVC060 08/03 A3007 RMK AO2 SLP194 70008 T00780028 10078 20056 53002
KISN 201052Z AUTO VRB03KT 10SM SCT085 BKN120 08/03 A3005 RMK AO2 SLP184 T00780028
KISN 200952Z AUTO 36003KT 10SM BKN090 OVC110 07/03 A3006 RMK AO2 SLP189 T00670028
KISN 200852Z AUTO 03006KT 10SM BKN050 06/02 A3007 RMK AO2 PRESFR SLP193 T00610017 56020
KISN 200752Z AUTO 05007KT 10SM CLR 07/02 A3008 RMK AO2 SLP199 T00670017
KISN 200652Z AUTO 07011KT 10SM BKN120 07/02 A3011 RMK AO2 SLP208 T00670017
KISN 200552Z AUTO 03007KT 10SM CLR 07/02 A3013 RMK AO2 SLP215 T00670017 10106 20067 401170067 58010
KISN 200452Z AUTO 03006KT 10SM CLR 07/02 A3014 RMK AO2 SLP218 T00720022